Time;durP1;ratioP1;P1;durP2;ratioP2;P2;SDS_P1;SDS_P2;PMS_P1;PMS_P2;Temp;Humidity;BMP_temperature;BMP_pressure;BME280_temperature;BME280_humidity;BME280_pressure;Samples;Min_cycle;Max_cycle;Signal;HPM_P1;HPM_P2
2021/09/09 00:01:14;;;;;;;20.30;13.98;;;19.00;99.90;;;;;;5031911;28;20217;-67
2021/09/09 00:03:42;;;;;;;20.90;14.32;;;19.00;99.90;;;;;;5030668;28;20226;-67
2021/09/09 00:06:09;;;;;;;22.52;14.60;;;18.90;99.90;;;;;;5030602;28;20807;-67
2021/09/09 00:08:36;;;;;;;15.40;13.07;;;19.00;99.90;;;;;;5031540;28;20241;-67
2021/09/09 00:11:03;;;;;;;16.40;12.95;;;18.90;99.90;;;;;;5030944;28;20206;-66
2021/09/09 00:13:29;;;;;;;16.55;12.73;;;18.90;99.90;;;;;;5030834;28;20254;-67
2021/09/09 00:15:56;;;;;;;19.45;14.32;;;18.90;99.90;;;;;;5031180;28;20206;-67
2021/09/09 00:18:23;;;;;;;18.80;13.45;;;18.90;99.90;;;;;;5031228;28;20763;-66
2021/09/09 00:20:51;;;;;;;15.32;12.75;;;18.90;99.90;;;;;;5030219;28;20574;-67
2021/09/09 00:23:18;;;;;;;16.75;12.68;;;18.90;99.90;;;;;;5030263;28;20226;-67
2021/09/09 00:25:45;;;;;;;15.43;12.32;;;18.90;99.90;;;;;;5030810;28;20707;-67
2021/09/09 00:28:12;;;;;;;18.52;13.20;;;18.90;99.90;;;;;;5030965;28;20210;-68
2021/09/09 00:30:38;;;;;;;14.88;12.30;;;18.90;99.90;;;;;;5030649;28;20753;-68
2021/09/09 00:33:07;;;;;;;17.58;12.63;;;18.90;99.90;;;;;;5030175;28;20203;-67
2021/09/09 00:35:33;;;;;;;18.52;12.77;;;18.90;99.90;;;;;;5030208;28;20651;-67
2021/09/09 00:38:02;;;;;;;16.77;12.40;;;18.90;99.90;;;;;;5022135;28;20219;-67
2021/09/09 00:40:29;;;;;;;15.98;12.85;;;18.80;99.90;;;;;;5029793;28;20221;-66
2021/09/09 00:42:55;;;;;;;14.52;12.15;;;18.80;99.90;;;;;;5029630;28;20226;-67
2021/09/09 00:45:22;;;;;;;18.38;13.52;;;18.80;99.90;;;;;;5032523;28;20210;-67
2021/09/09 00:47:49;;;;;;;17.30;13.13;;;18.80;99.90;;;;;;5034161;28;20618;-67
2021/09/09 00:50:16;;;;;;;16.85;12.95;;;18.80;99.90;;;;;;5034073;28;20214;-68
2021/09/09 00:52:47;;;;;;;17.27;13.07;;;18.80;99.90;;;;;;5034121;28;20293;-67
2021/09/09 00:55:16;;;;;;;16.67;12.70;;;18.80;99.90;;;;;;5034267;28;20213;-67
2021/09/09 00:57:45;;;;;;;17.02;12.77;;;18.80;99.90;;;;;;5034201;28;20592;-67
2021/09/09 01:00:13;;;;;;;16.20;12.48;;;18.80;99.90;;;;;;5034158;28;20198;-67
2021/09/09 01:02:40;;;;;;;16.50;12.80;;;18.70;99.90;;;;;;5033400;28;20230;-67
2021/09/09 01:05:10;;;;;;;19.98;12.30;;;18.70;99.90;;;;;;5033971;28;20210;-68
2021/09/09 01:07:37;;;;;;;17.00;12.75;;;18.70;99.90;;;;;;5034042;28;20206;-67
2021/09/09 01:10:04;;;;;;;14.63;11.65;;;18.70;99.90;;;;;;5033840;28;20203;-67
2021/09/09 01:12:32;;;;;;;15.48;12.48;;;18.60;99.90;;;;;;5033410;28;20210;-68
2021/09/09 01:14:59;;;;;;;15.17;11.73;;;18.60;99.90;;;;;;5034126;28;20208;-67
2021/09/09 01:17:26;;;;;;;15.60;11.98;;;18.60;99.90;;;;;;5033749;28;20202;-67
2021/09/09 01:19:53;;;;;;;17.65;12.02;;;18.60;99.90;;;;;;5033736;28;20210;-67
2021/09/09 01:22:20;;;;;;;18.63;12.35;;;18.60;99.90;;;;;;5033347;28;20326;-67
2021/09/09 01:24:48;;;;;;;14.67;11.77;;;18.50;99.90;;;;;;5033380;28;20210;-66
2021/09/09 01:27:16;;;;;;;16.38;12.55;;;18.60;99.90;;;;;;5033963;28;20210;-66
2021/09/09 01:29:43;;;;;;;16.45;12.15;;;18.50;99.90;;;;;;5032465;28;20285;-66
2021/09/09 01:32:11;;;;;;;16.63;11.63;;;18.50;99.90;;;;;;5032759;28;20328;-67
2021/09/09 01:34:38;;;;;;;14.20;10.87;;;18.50;99.90;;;;;;5033297;28;20240;-67
2021/09/09 01:37:05;;;;;;;12.90;10.37;;;18.50;99.90;;;;;;5030778;28;20583;-67
2021/09/09 01:39:32;;;;;;;12.95;10.65;;;18.50;99.90;;;;;;5028565;28;20198;-67
2021/09/09 01:42:01;;;;;;;13.45;11.73;;;18.50;99.90;;;;;;5030673;28;20221;-68
2021/09/09 01:44:29;;;;;;;13.80;11.23;;;18.50;99.90;;;;;;5033031;28;20214;-67
2021/09/09 01:46:56;;;;;;;13.32;10.70;;;18.40;99.90;;;;;;5019584;28;20213;-66
2021/09/09 01:49:23;;;;;;;13.30;11.55;;;18.50;99.90;;;;;;5032593;28;20209;-68
2021/09/09 01:51:50;;;;;;;17.60;11.30;;;18.40;99.90;;;;;;5033160;28;20590;-66
2021/09/09 01:54:17;;;;;;;15.00;11.45;;;18.40;99.90;;;;;;5033467;28;20207;-67
2021/09/09 01:56:44;;;;;;;16.53;11.13;;;18.40;99.90;;;;;;5032677;28;20198;-67
2021/09/09 01:59:12;;;;;;;14.90;11.47;;;18.40;99.90;;;;;;5032472;28;20582;-66
2021/09/09 02:01:39;;;;;;;12.98;10.82;;;18.40;99.90;;;;;;5032674;28;20206;-66
2021/09/09 02:04:06;;;;;;;13.77;10.63;;;18.40;99.90;;;;;;5030131;28;20218;-66
2021/09/09 02:06:34;;;;;;;16.57;10.93;;;18.40;99.90;;;;;;5032977;28;20238;-67
2021/09/09 02:09:01;;;;;;;16.67;11.80;;;18.40;99.90;;;;;;5032964;28;20206;-66
2021/09/09 02:11:28;;;;;;;12.98;11.15;;;18.30;99.90;;;;;;5032659;28;20225;-67
2021/09/09 02:13:55;;;;;;;13.20;10.90;;;18.40;99.90;;;;;;5032847;28;20210;-66
2021/09/09 02:16:23;;;;;;;14.70;11.98;;;18.30;99.90;;;;;;5032701;28;20210;-67
2021/09/09 02:18:50;;;;;;;13.50;11.20;;;18.30;99.90;;;;;;5033341;28;20199;-66
2021/09/09 02:21:17;;;;;;;16.83;13.00;;;18.30;99.90;;;;;;5032571;28;20234;-66
2021/09/09 02:23:44;;;;;;;14.85;11.07;;;18.30;99.90;;;;;;5032338;28;20230;-67
2021/09/09 02:26:11;;;;;;;15.88;11.45;;;18.30;99.90;;;;;;5032117;28;20206;-66
2021/09/09 02:28:38;;;;;;;16.35;11.70;;;18.20;99.90;;;;;;5032822;28;20206;-67
2021/09/09 02:31:05;;;;;;;14.60;11.57;;;18.30;99.90;;;;;;5032833;28;20198;-67
2021/09/09 02:33:33;;;;;;;13.57;10.93;;;18.20;99.90;;;;;;5033383;28;20210;-67
2021/09/09 02:36:00;;;;;;;13.87;11.13;;;18.30;99.90;;;;;;5032503;28;20233;-67
2021/09/09 02:38:27;;;;;;;15.52;11.82;;;18.20;99.90;;;;;;5024402;28;20210;-67
2021/09/09 02:40:53;;;;;;;32.77;12.73;;;18.20;99.90;;;;;;5032346;28;20203;-66
2021/09/09 02:43:20;;;;;;;16.25;11.35;;;18.20;99.90;;;;;;5033246;28;20218;-67
2021/09/09 02:45:47;;;;;;;15.73;11.60;;;18.10;99.90;;;;;;5032652;28;20206;-67
2021/09/09 02:48:14;;;;;;;18.27;12.40;;;18.10;99.90;;;;;;5033230;28;20211;-65
2021/09/09 02:50:42;;;;;;;16.17;12.17;;;18.10;99.90;;;;;;5037008;28;20578;-68
2021/09/09 02:53:09;;;;;;;17.10;11.67;;;18.10;99.90;;;;;;5041219;28;20202;-66
2021/09/09 02:55:35;;;;;;;16.30;12.63;;;18.00;99.90;;;;;;5031417;28;20234;-67
2021/09/09 02:58:02;;;;;;;17.27;13.57;;;18.00;99.90;;;;;;5031986;28;20210;-67
2021/09/09 03:00:29;;;;;;;18.10;14.23;;;18.00;99.90;;;;;;5032337;28;20229;-67
2021/09/09 03:02:56;;;;;;;18.57;14.73;;;17.90;99.90;;;;;;5032584;28;20230;-67
2021/09/09 03:05:23;;;;;;;19.53;14.57;;;17.90;99.90;;;;;;5031211;28;20837;-66
2021/09/09 03:07:51;;;;;;;19.53;15.13;;;17.80;99.90;;;;;;5031862;28;20210;-66
2021/09/09 03:10:17;;;;;;;20.10;15.37;;;17.80;99.90;;;;;;5030603;28;20207;-66
2021/09/09 03:12:44;;;;;;;18.83;15.23;;;17.70;99.90;;;;;;5030977;28;20203;-67
2021/09/09 03:15:11;;;;;;;19.97;15.93;;;17.70;99.90;;;;;;5031578;28;20210;-67
2021/09/09 03:17:38;;;;;;;22.17;15.27;;;17.70;99.90;;;;;;5031890;28;20530;-67
2021/09/09 03:20:06;;;;;;;21.17;16.07;;;17.60;99.90;;;;;;5031115;28;20835;-67
2021/09/09 03:22:33;;;;;;;20.83;15.63;;;17.60;99.90;;;;;;5031060;28;20221;-68
2021/09/09 03:25:01;;;;;;;22.23;15.57;;;17.50;99.90;;;;;;5031297;28;20226;-68
2021/09/09 03:27:27;;;;;;;20.40;15.97;;;17.50;99.90;;;;;;5031238;28;20297;-67
2021/09/09 03:29:54;;;;;;;20.83;15.50;;;17.50;99.90;;;;;;5022130;28;20644;-67
2021/09/09 03:32:21;;;;;;;21.20;15.23;;;17.40;99.90;;;;;;5031294;28;20214;-67
2021/09/09 03:34:48;;;;;;;19.40;15.33;;;17.40;99.90;;;;;;5031153;28;20202;-66
2021/09/09 03:37:15;;;;;;;20.87;16.10;;;17.30;99.90;;;;;;5026629;28;20230;-65
2021/09/09 03:39:41;;;;;;;17.60;14.57;;;17.30;99.90;;;;;;5027573;28;20305;-65
2021/09/09 03:42:10;;;;;;;23.53;15.37;;;17.30;99.90;;;;;;5031631;28;20207;-67
2021/09/09 03:44:37;;;;;;;18.10;14.73;;;17.20;99.90;;;;;;5031020;28;20245;-67
2021/09/09 03:47:04;;;;;;;21.93;15.57;;;17.20;99.90;;;;;;5030517;28;20203;-66
2021/09/09 03:49:31;;;;;;;19.07;15.50;;;17.20;99.90;;;;;;5030512;28;20198;-68
2021/09/09 03:51:57;;;;;;;20.13;16.23;;;17.10;99.90;;;;;;5031094;28;20207;-67
2021/09/09 03:54:24;;;;;;;20.47;15.60;;;17.20;99.90;;;;;;5031282;28;20211;-67
2021/09/09 03:56:51;;;;;;;18.33;14.63;;;17.10;99.90;;;;;;5031406;28;20218;-67
2021/09/09 03:59:19;;;;;;;20.13;15.17;;;17.00;99.90;;;;;;5016577;28;20570;-68
2021/09/09 04:01:46;;;;;;;20.73;15.23;;;17.10;99.90;;;;;;5031016;28;20754;-68
2021/09/09 04:04:12;;;;;;;19.30;15.57;;;17.00;99.90;;;;;;5035625;28;20230;-66
2021/09/09 04:06:39;;;;;;;18.20;15.07;;;17.00;99.90;;;;;;5036835;28;20253;-67
2021/09/09 04:09:06;;;;;;;18.53;14.47;;;17.00;99.90;;;;;;5030847;28;20705;-66
2021/09/09 04:11:35;;;;;;;18.60;14.57;;;17.00;99.90;;;;;;5030891;28;20571;-66
2021/09/09 04:14:02;;;;;;;19.00;15.47;;;17.00;99.90;;;;;;5030947;28;20214;-67
2021/09/09 04:16:31;;;;;;;22.23;15.73;;;17.00;99.90;;;;;;5030098;28;20210;-66
2021/09/09 04:18:57;;;;;;;18.07;14.13;;;17.00;99.90;;;;;;5029471;28;20698;-67
2021/09/09 04:21:24;;;;;;;19.77;14.37;;;17.00;99.90;;;;;;5025701;28;21029;-67
2021/09/09 04:23:51;;;;;;;18.97;14.53;;;17.10;99.90;;;;;;5034920;28;20896;-67
2021/09/09 04:26:18;;;;;;;22.03;14.77;;;17.00;99.90;;;;;;5034202;28;20559;-67
2021/09/09 04:28:44;;;;;;;18.20;14.73;;;17.10;99.90;;;;;;5035215;28;20206;-66
2021/09/09 04:31:11;;;;;;;20.33;15.20;;;17.10;99.90;;;;;;5034391;28;20757;-67
2021/09/09 04:33:39;;;;;;;21.53;15.37;;;17.10;99.90;;;;;;5034649;28;20217;-67
2021/09/09 04:36:06;;;;;;;21.73;16.00;;;17.10;99.90;;;;;;5034991;28;20225;-67
2021/09/09 04:38:33;;;;;;;22.77;15.97;;;17.10;99.90;;;;;;5026659;28;20214;-66
2021/09/09 04:41:00;;;;;;;21.47;16.83;;;17.20;99.90;;;;;;5034578;28;20218;-67
2021/09/09 04:43:26;;;;;;;23.10;16.40;;;17.20;99.90;;;;;;5035011;28;20588;-66
2021/09/09 04:45:53;;;;;;;21.77;17.17;;;17.20;99.90;;;;;;5035006;28;20211;-67
2021/09/09 04:48:20;;;;;;;19.70;16.37;;;17.30;99.90;;;;;;5034046;28;20234;-66
2021/09/09 04:50:48;;;;;;;22.05;16.52;;;17.30;99.90;;;;;;5035821;28;20659;-66
2021/09/09 04:53:15;;;;;;;21.63;15.60;;;17.30;99.90;;;;;;5034908;28;20681;-66
2021/09/09 04:55:41;;;;;;;22.33;15.87;;;17.30;99.90;;;;;;5034080;28;20241;-67
2021/09/09 04:58:10;;;;;;;18.80;14.80;;;17.30;99.90;;;;;;5034597;28;20210;-67
2021/09/09 05:00:36;;;;;;;20.27;15.90;;;17.40;99.90;;;;;;5033362;28;20215;-67
2021/09/09 05:03:03;;;;;;;22.60;16.30;;;17.40;99.90;;;;;;5034400;28;20214;-66
2021/09/09 05:05:30;;;;;;;23.00;16.50;;;17.50;99.90;;;;;;5033337;28;20238;-67
2021/09/09 05:07:58;;;;;;;20.90;15.80;;;17.50;99.90;;;;;;5022867;28;20203;-67
2021/09/09 05:10:25;;;;;;;21.17;16.17;;;17.50;99.90;;;;;;5018908;28;20203;-66
2021/09/09 05:12:51;;;;;;;21.97;16.53;;;17.60;99.90;;;;;;5034304;28;20206;-67
2021/09/09 05:15:18;;;;;;;21.20;15.87;;;17.60;99.90;;;;;;5033484;28;20558;-66
2021/09/09 05:17:45;;;;;;;19.08;15.52;;;17.60;99.90;;;;;;5030038;28;20651;-68
2021/09/09 05:20:13;;;;;;;21.87;15.33;;;17.70;99.90;;;;;;5018785;28;20211;-68
2021/09/09 05:22:39;;;;;;;26.47;16.00;;;17.80;99.90;;;;;;5028281;28;20211;-69
2021/09/09 05:25:08;;;;;;;23.27;16.37;;;17.80;99.90;;;;;;5033241;28;20233;-67
2021/09/09 05:27:35;;;;;;;23.80;15.07;;;17.80;99.90;;;;;;5031742;28;20206;-67
2021/09/09 05:30:02;;;;;;;21.55;15.73;;;17.90;99.90;;;;;;5033073;28;20222;-67
2021/09/09 05:32:29;;;;;;;19.80;15.13;;;17.90;99.90;;;;;;5033208;28;20211;-67
2021/09/09 05:34:55;;;;;;;20.67;14.90;;;17.90;99.90;;;;;;5034390;28;20579;-68
2021/09/09 05:37:23;;;;;;;21.57;15.27;;;18.00;99.90;;;;;;5026512;28;20754;-67
2021/09/09 05:39:49;;;;;;;20.87;15.23;;;18.10;99.90;;;;;;5033189;28;20401;-67
2021/09/09 05:42:17;;;;;;;21.40;14.18;;;18.10;99.90;;;;;;5033177;28;20210;-67
2021/09/09 05:44:44;;;;;;;20.87;15.27;;;18.10;99.90;;;;;;5033099;28;20594;-67
2021/09/09 05:47:11;;;;;;;20.53;15.03;;;18.20;99.90;;;;;;5027095;28;20206;-67
2021/09/09 05:49:38;;;;;;;21.80;14.85;;;18.30;99.90;;;;;;5016041;28;20204;-67
2021/09/09 05:52:05;;;;;;;22.33;14.20;;;18.40;99.90;;;;;;5025111;28;20286;-67
2021/09/09 05:54:32;;;;;;;22.05;14.60;;;18.40;99.90;;;;;;5018925;28;20207;-67
2021/09/09 05:56:59;;;;;;;20.60;14.73;;;18.40;99.90;;;;;;5019965;28;20203;-67
2021/09/09 05:59:27;;;;;;;20.90;14.20;;;18.50;99.90;;;;;;5019444;28;20203;-68
2021/09/09 06:01:54;;;;;;;23.20;14.53;;;18.50;99.90;;;;;;5022357;28;20674;-68
2021/09/09 06:04:22;;;;;;;20.33;14.25;;;18.60;99.90;;;;;;5027066;28;20585;-69
2021/09/09 06:06:49;;;;;;;19.35;13.90;;;18.60;99.90;;;;;;5028663;28;20242;-69
2021/09/09 06:09:16;;;;;;;18.80;13.50;;;18.70;99.90;;;;;;5032082;28;20198;-68
2021/09/09 06:11:43;;;;;;;19.77;13.85;;;18.70;99.90;;;;;;5032915;28;20214;-68
2021/09/09 06:14:10;;;;;;;16.60;13.40;;;18.70;99.90;;;;;;5032149;28;20569;-68
2021/09/09 06:16:39;;;;;;;18.15;13.52;;;18.80;99.90;;;;;;5028897;28;20789;-68
2021/09/09 06:19:06;;;;;;;17.95;13.18;;;18.80;99.90;;;;;;5032108;28;20651;-67
2021/09/09 06:21:32;;;;;;;20.83;13.45;;;19.20;99.90;;;;;;5023517;28;20214;-68
2021/09/09 06:24:00;;;;;;;22.25;13.80;;;19.30;99.90;;;;;;5032627;28;20234;-68
2021/09/09 06:26:27;;;;;;;17.73;13.05;;;19.40;99.90;;;;;;5026917;28;20211;-69
2021/09/09 06:28:54;;;;;;;19.88;14.20;;;19.50;99.90;;;;;;5030574;28;20210;-68
2021/09/09 06:31:20;;;;;;;20.92;13.82;;;19.40;99.90;;;;;;5032656;28;20214;-68
2021/09/09 06:33:49;;;;;;;21.80;13.02;;;19.50;99.90;;;;;;5032627;28;20567;-69
2021/09/09 06:36:15;;;;;;;22.10;13.15;;;19.50;99.90;;;;;;5030979;28;20579;-68
2021/09/09 06:38:42;;;;;;;18.15;12.88;;;19.60;99.90;;;;;;5032340;28;20210;-68
2021/09/09 06:41:09;;;;;;;19.75;12.23;;;19.60;99.90;;;;;;5033173;28;20214;-67
2021/09/09 06:43:36;;;;;;;17.95;12.55;;;19.70;99.90;;;;;;5036843;28;20592;-67
2021/09/09 06:46:03;;;;;;;14.90;12.30;;;19.70;99.90;;;;;;5032288;28;20218;-68
2021/09/09 06:48:29;;;;;;;15.23;12.07;;;19.80;99.90;;;;;;5031944;28;20838;-67
2021/09/09 06:51:00;;;;;;;20.13;12.15;;;19.80;99.90;;;;;;5032457;28;20566;-66
2021/09/09 06:53:27;;;;;;;18.30;11.75;;;19.80;99.90;;;;;;5032714;28;20777;-67
2021/09/09 06:55:54;;;;;;;19.75;12.10;;;19.80;99.90;;;;;;5019882;28;20203;-68
2021/09/09 06:58:21;;;;;;;22.48;11.82;;;19.80;99.90;;;;;;5030664;28;20217;-67
2021/09/09 07:00:49;;;;;;;16.25;11.18;;;19.90;99.90;;;;;;5032759;28;20199;-68
2021/09/09 07:03:17;;;;;;;15.63;10.52;;;19.90;99.90;;;;;;5031750;28;20198;-67
2021/09/09 07:05:43;;;;;;;13.23;10.63;;;20.00;99.90;;;;;;5031335;28;20245;-67
2021/09/09 07:08:11;;;;;;;17.48;10.18;;;20.10;99.90;;;;;;5031017;28;20202;-68
2021/09/09 07:10:38;;;;;;;12.93;10.57;;;20.20;99.90;;;;;;5030496;28;20206;-68
2021/09/09 07:13:05;;;;;;;13.25;9.43;;;20.30;99.90;;;;;;5031589;28;20256;-68
2021/09/09 07:15:32;;;;;;;12.60;9.18;;;20.40;99.90;;;;;;5031884;28;20257;-68
2021/09/09 07:17:58;;;;;;;13.57;10.38;;;20.50;99.90;;;;;;5031440;28;20202;-66
2021/09/09 07:20:25;;;;;;;13.73;9.93;;;20.70;99.90;;;;;;5031964;28;20207;-66
2021/09/09 07:22:52;;;;;;;15.48;10.45;;;20.80;99.90;;;;;;5031031;28;20589;-67
2021/09/09 07:25:20;;;;;;;15.05;10.50;;;20.90;99.70;;;;;;5031271;28;20717;-68
2021/09/09 07:27:47;;;;;;;14.98;9.98;;;21.10;99.60;;;;;;5031827;28;20211;-67
2021/09/09 07:30:13;;;;;;;14.38;9.93;;;21.20;99.30;;;;;;5031473;28;20206;-68
2021/09/09 07:32:40;;;;;;;16.23;10.13;;;21.30;99.00;;;;;;5031638;28;20209;-67
2021/09/09 07:35:09;;;;;;;13.00;9.13;;;21.40;98.70;;;;;;5031968;28;20225;-69
2021/09/09 07:37:35;;;;;;;12.20;8.68;;;21.60;98.40;;;;;;5031079;28;20269;-69
2021/09/09 07:40:03;;;;;;;13.40;9.30;;;21.70;98.10;;;;;;5031511;28;20214;-68
2021/09/09 07:42:31;;;;;;;14.60;9.77;;;21.90;97.80;;;;;;5031176;28;20214;-69
2021/09/09 07:44:58;;;;;;;10.55;8.45;;;22.00;97.50;;;;;;5031711;28;20226;-69
2021/09/09 07:47:24;;;;;;;10.25;8.60;;;22.20;97.10;;;;;;5041169;28;20210;-70
2021/09/09 07:49:51;;;;;;;12.43;9.52;;;22.40;96.60;;;;;;5033901;28;20219;-70
2021/09/09 07:52:18;;;;;;;12.77;9.18;;;22.50;96.10;;;;;;5035600;28;20648;-68
2021/09/09 07:54:45;;;;;;;13.80;8.82;;;22.60;95.70;;;;;;5028683;28;20659;-68
2021/09/09 07:57:11;;;;;;;11.80;9.23;;;22.80;95.50;;;;;;5030843;28;20211;-69
2021/09/09 07:59:40;;;;;;;12.38;8.25;;;22.90;95.00;;;;;;5024986;28;20661;-68
2021/09/09 08:02:07;;;;;;;10.75;8.15;;;23.00;94.30;;;;;;5028622;28;20245;-68
2021/09/09 08:04:33;;;;;;;10.65;8.07;;;23.10;93.90;;;;;;5031031;28;20241;-68
2021/09/09 08:07:00;;;;;;;12.23;7.95;;;23.30;93.80;;;;;;5025013;28;20686;-67
2021/09/09 08:09:27;;;;;;;11.85;7.65;;;23.40;93.50;;;;;;5023097;28;20207;-69
2021/09/09 08:11:55;;;;;;;12.63;9.20;;;23.60;93.20;;;;;;5020365;28;21607;-69
2021/09/09 08:14:22;;;;;;;10.35;7.95;;;23.70;92.90;;;;;;5023076;28;20206;-69
2021/09/09 08:16:50;;;;;;;11.50;8.15;;;23.80;92.60;;;;;;5026600;28;20214;-68
2021/09/09 08:19:17;;;;;;;14.10;8.15;;;23.90;92.20;;;;;;5025276;28;20213;-69
2021/09/09 08:21:44;;;;;;;13.88;8.00;;;24.00;92.10;;;;;;5031362;28;20214;-69
2021/09/09 08:24:11;;;;;;;9.98;7.95;;;24.20;91.60;;;;;;5028577;28;20198;-68
2021/09/09 08:26:37;;;;;;;14.05;7.88;;;24.30;91.20;;;;;;5031478;28;20207;-68
2021/09/09 08:29:05;;;;;;;9.27;7.10;;;24.30;91.10;;;;;;5031870;28;20215;-68
2021/09/09 08:31:32;;;;;;;11.45;7.90;;;24.60;90.90;;;;;;5031703;28;20207;-70
2021/09/09 08:34:00;;;;;;;12.73;8.00;;;24.80;90.50;;;;;;5030277;28;20205;-68
2021/09/09 08:36:27;;;;;;;10.07;7.03;;;24.90;89.70;;;;;;5030108;28;20317;-67
2021/09/09 08:38:55;;;;;;;9.35;7.78;;;25.10;88.30;;;;;;5029884;28;20214;-68
2021/09/09 08:41:22;;;;;;;9.45;7.57;;;25.20;87.50;;;;;;5029642;28;20614;-68
2021/09/09 08:43:49;;;;;;;9.65;7.43;;;25.30;86.50;;;;;;5021563;28;20645;-68
2021/09/09 08:46:17;;;;;;;9.25;6.82;;;25.50;85.60;;;;;;5029249;28;20679;-69
2021/09/09 08:48:44;;;;;;;10.43;7.47;;;25.70;84.70;;;;;;5028751;28;20211;-69
2021/09/09 08:51:14;;;;;;;9.43;6.88;;;26.00;83.70;;;;;;5023884;28;20202;-68
2021/09/09 08:53:43;;;;;;;8.90;6.10;;;26.10;82.50;;;;;;5024353;28;20207;-69
2021/09/09 08:56:12;;;;;;;8.63;6.55;;;26.20;81.20;;;;;;5018815;28;20204;-69
2021/09/09 08:58:39;;;;;;;8.27;6.60;;;26.30;79.30;;;;;;5024595;28;20234;-69
2021/09/09 09:01:08;;;;;;;11.98;7.15;;;26.40;78.80;;;;;;5018385;28;20218;-68
2021/09/09 09:03:47;;;;;;;11.02;7.55;;;26.60;78.10;;;;;;5023317;28;20306;-69
2021/09/09 09:06:36;;;;;;;10.05;6.72;;;26.70;77.20;;;;;;5018341;28;20742;-69
2021/09/09 09:09:08;;;;;;;8.15;6.05;;;26.90;76.50;;;;;;5029186;28;20235;-69
2021/09/09 09:11:37;;;;;;;7.55;5.85;;;27.20;76.40;;;;;;5018875;28;20227;-70
2021/09/09 09:14:06;;;;;;;8.52;6.32;;;28.40;74.10;;;;;;5028447;28;20238;-69
2021/09/09 09:16:32;;;;;;;6.80;5.80;;;29.90;68.30;;;;;;5028016;28;20211;-70
2021/09/09 09:19:01;;;;;;;9.40;6.00;;;31.10;61.40;;;;;;5028369;28;20211;-69
2021/09/09 09:28:13;;;;;;;6.65;5.65;;;33.90;52.50;;;;;;5019780;28;20189;-69
2021/09/09 09:30:56;;;;;;;6.38;5.22;;;34.40;50.70;;;;;;5033197;28;20306;-68
2021/09/09 09:33:31;;;;;;;9.02;7.00;;;34.20;49.40;;;;;;5030004;28;20229;-69
2021/09/09 09:36:26;;;;;;;8.50;5.72;;;34.30;49.90;;;;;;5033556;28;20592;-70
2021/09/09 09:38:55;;;;;;;10.00;5.95;;;34.30;49.60;;;;;;5040517;28;20232;-69
2021/09/09 09:41:24;;;;;;;10.68;6.57;;;34.20;49.00;;;;;;5035954;28;20222;-69
2021/09/09 09:43:54;;;;;;;6.85;6.13;;;33.90;48.90;;;;;;5026617;28;20206;-69
2021/09/09 09:46:29;;;;;;;9.38;5.32;;;33.70;50.00;;;;;;5023187;28;20208;-68
2021/09/09 09:48:56;;;;;;;7.57;5.50;;;33.50;49.40;;;;;;5027057;28;20325;-68
2021/09/09 09:51:41;;;;;;;6.60;5.43;;;33.20;49.40;;;;;;5031952;28;20207;-69
2021/09/09 09:54:09;;;;;;;8.13;5.72;;;33.00;49.90;;;;;;5030498;28;20563;-68
2021/09/09 09:56:36;;;;;;;7.18;5.57;;;32.80;49.80;;;;;;5024612;28;20790;-68
2021/09/09 09:59:05;;;;;;;7.00;6.25;;;32.80;49.40;;;;;;5028831;28;20203;-69
2021/09/09 10:01:33;;;;;;;6.82;5.57;;;32.80;49.80;;;;;;5030155;28;20663;-69
2021/09/09 10:04:02;;;;;;;7.93;5.93;;;32.80;49.50;;;;;;5031917;28;20199;-69
2021/09/09 10:06:31;;;;;;;7.10;6.15;;;32.90;49.80;;;;;;5027221;28;20242;-69
2021/09/09 10:08:58;;;;;;;6.75;5.43;;;33.00;49.70;;;;;;5029279;28;20205;-68
2021/09/09 10:11:25;;;;;;;7.90;6.00;;;33.00;49.90;;;;;;5019997;28;20254;-70
2021/09/09 10:13:52;;;;;;;6.38;5.75;;;33.00;49.30;;;;;;5028850;28;20229;-68
2021/09/09 10:16:22;;;;;;;7.32;5.97;;;33.30;49.60;;;;;;5028067;28;20216;-67
2021/09/09 10:18:49;;;;;;;7.28;5.50;;;33.50;48.10;;;;;;5017116;28;20575;-69
2021/09/09 10:21:38;;;;;;;7.68;5.22;;;33.30;47.80;;;;;;5017543;28;20199;-69
2021/09/09 10:24:13;;;;;;;6.15;5.40;;;32.90;48.50;;;;;;5021869;28;20257;-68
2021/09/09 10:26:41;;;;;;;6.47;5.47;;;32.60;49.20;;;;;;5025429;28;20226;-69
2021/09/09 10:29:25;;;;;;;8.23;5.70;;;32.30;49.50;;;;;;5028636;28;20221;-69
2021/09/09 10:31:53;;;;;;;7.65;5.78;;;32.20;50.10;;;;;;5028346;28;20222;-69
2021/09/09 10:34:23;;;;;;;6.85;5.72;;;32.00;49.80;;;;;;5026852;28;20460;-67
2021/09/09 10:36:50;;;;;;;8.60;6.15;;;31.70;50.20;;;;;;5030224;28;20229;-68
2021/09/09 10:39:20;;;;;;;7.85;5.68;;;31.50;51.00;;;;;;5024023;28;20206;-68
2021/09/09 10:41:47;;;;;;;9.77;6.90;;;31.50;51.10;;;;;;5028815;28;20302;-68
2021/09/09 10:44:14;;;;;;;7.47;5.88;;;31.70;51.10;;;;;;5028728;28;20206;-68
2021/09/09 10:46:42;;;;;;;7.75;5.55;;;31.90;50.80;;;;;;5029856;28;20221;-68
2021/09/09 10:49:14;;;;;;;7.30;5.60;;;32.10;51.10;;;;;;5031431;28;20242;-68
2021/09/09 10:52:09;;;;;;;7.70;5.65;;;32.30;50.10;;;;;;5031840;28;20207;-68
2021/09/09 10:55:03;;;;;;;8.30;5.90;;;32.20;50.10;;;;;;5020736;28;20206;-69
2021/09/09 10:57:30;;;;;;;7.68;4.88;;;32.00;49.80;;;;;;5030325;28;20264;-69
2021/09/09 10:59:57;;;;;;;7.63;5.70;;;32.00;49.80;;;;;;5030721;28;20274;-67
2021/09/09 11:02:24;;;;;;;6.85;5.53;;;32.10;48.50;;;;;;5032050;28;20213;-68
2021/09/09 11:04:52;;;;;;;7.20;5.70;;;32.10;48.10;;;;;;5032754;28;20568;-68
2021/09/09 11:07:23;;;;;;;6.93;5.55;;;32.00;48.80;;;;;;5031088;28;20230;-68
2021/09/09 11:10:05;;;;;;;7.03;5.63;;;32.00;48.30;;;;;;5031693;28;20206;-68
2021/09/09 11:12:37;;;;;;;10.65;5.63;;;32.20;47.70;;;;;;5028411;28;20214;-69
2021/09/09 11:15:06;;;;;;;7.43;5.35;;;32.20;47.20;;;;;;5023476;28;20207;-68
2021/09/09 11:17:32;;;;;;;8.13;5.40;;;32.20;47.00;;;;;;5014585;28;20213;-69
2021/09/09 11:20:06;;;;;;;6.15;5.43;;;32.30;47.10;;;;;;5027064;28;20218;-68
2021/09/09 11:22:34;;;;;;;6.50;5.57;;;32.50;46.90;;;;;;5031090;28;20337;-67
2021/09/09 11:25:01;;;;;;;8.15;5.65;;;32.50;47.60;;;;;;5029370;28;20297;-68
2021/09/09 11:27:30;;;;;;;6.25;5.63;;;32.60;47.40;;;;;;5014691;28;20215;-68
2021/09/09 11:29:58;;;;;;;8.00;5.53;;;32.70;47.10;;;;;;5027639;28;20280;-67
2021/09/09 11:32:25;;;;;;;6.10;5.22;;;32.80;47.20;;;;;;5017657;28;20207;-67
2021/09/09 11:34:52;;;;;;;7.45;5.50;;;32.90;46.90;;;;;;5024155;28;20197;-69
2021/09/09 11:37:22;;;;;;;6.20;5.60;;;32.90;47.00;;;;;;5028150;28;20230;-69
2021/09/09 11:39:48;;;;;;;10.85;5.90;;;33.00;46.00;;;;;;5030387;28;20290;-68
2021/09/09 11:42:15;;;;;;;6.18;5.57;;;33.20;46.90;;;;;;5031177;28;20206;-67
2021/09/09 11:44:42;;;;;;;6.32;5.35;;;33.30;46.10;;;;;;5034435;28;20576;-68
2021/09/09 11:47:11;;;;;;;7.30;5.40;;;33.30;45.70;;;;;;5037475;28;20229;-67
2021/09/09 11:49:38;;;;;;;8.88;5.53;;;33.00;45.60;;;;;;5031935;28;20218;-67
2021/09/09 11:52:07;;;;;;;6.97;5.63;;;33.50;45.50;;;;;;5024809;28;20211;-67
2021/09/09 11:54:37;;;;;;;6.43;5.70;;;33.60;45.50;;;;;;5020479;28;20745;-67
2021/09/09 11:57:06;;;;;;;7.70;5.70;;;33.50;44.70;;;;;;5031287;28;20694;-69
2021/09/09 11:59:34;;;;;;;9.60;5.63;;;33.30;45.30;;;;;;5030826;28;20218;-68
2021/09/09 12:02:06;;;;;;;8.30;5.45;;;33.10;45.30;;;;;;5031221;28;20213;-68
2021/09/09 12:04:35;;;;;;;7.63;5.70;;;33.00;45.80;;;;;;5031460;28;20655;-66
2021/09/09 12:07:02;;;;;;;10.18;4.95;;;33.00;45.50;;;;;;5030942;28;20238;-67
2021/09/09 12:09:32;;;;;;;6.97;5.43;;;33.00;45.10;;;;;;5030270;28;20652;-67
2021/09/09 12:12:05;;;;;;;6.57;5.63;;;33.00;45.40;;;;;;5030500;28;20272;-69
2021/09/09 12:14:33;;;;;;;7.00;5.22;;;33.10;45.50;;;;;;5030141;28;20202;-67
2021/09/09 12:17:11;;;;;;;6.13;5.50;;;33.20;45.60;;;;;;5029508;28;20203;-68
2021/09/09 12:19:54;;;;;;;5.75;5.25;;;33.10;45.10;;;;;;5030072;28;20233;-68
2021/09/09 12:22:21;;;;;;;6.85;5.35;;;32.80;45.80;;;;;;5030616;28;20210;-67
2021/09/09 12:24:48;;;;;;;7.72;6.03;;;32.50;46.00;;;;;;5023131;28;20219;-66
2021/09/09 12:27:19;;;;;;;9.15;5.63;;;32.30;46.50;;;;;;5027872;28;20223;-67
2021/09/09 12:29:47;;;;;;;7.70;5.20;;;32.00;47.00;;;;;;5029382;28;20198;-67
2021/09/09 12:32:27;;;;;;;6.65;5.85;;;31.80;47.30;;;;;;5030537;28;20499;-68
2021/09/09 12:35:16;;;;;;;8.27;5.80;;;31.80;47.80;;;;;;5029540;28;20248;-67
2021/09/09 12:37:43;;;;;;;8.88;5.93;;;31.90;47.10;;;;;;5030293;28;20679;-67
2021/09/09 12:40:11;;;;;;;7.47;5.22;;;31.80;46.80;;;;;;5030694;28;20290;-68
2021/09/09 12:42:39;;;;;;;7.40;5.32;;;31.60;47.30;;;;;;5034255;28;20233;-68
2021/09/09 12:45:08;;;;;;;6.43;5.78;;;31.60;47.30;;;;;;5035174;28;20202;-67